Time;durP1;ratioP1;P1;durP2;ratioP2;P2;SDS_P1;SDS_P2;PMS_P1;PMS_P2;Temp;Humidity;BMP_temperature;BMP_pressure;BME280_temperature;BME280_humidity;BME280_pressure;Samples;Min_cycle;Max_cycle;Signal;HPM_P1;HPM_P2
2021/01/20 06:01:47;;;;;;;;;;;;;;;;;;5075046;28;20448;-51
2021/01/20 06:04:13;;;;;;;3.70;1.58;;;;;;;;;;5064740;28;19909;-53
2021/01/20 06:06:40;;;;;;;0.55;0.40;;;;;;;;;;5066359;28;20702;-53
2021/01/20 06:09:08;;;;;;;3.30;1.27;;;;;;;;;;5064298;28;20154;-55
2021/01/20 06:11:34;;;;;;;3.63;1.58;;;;;;;;;;5065873;28;20028;-52
2021/01/20 06:14:02;;;;;;;3.03;2.03;;;;;;;;;;5063064;28;20381;-52
2021/01/20 06:16:34;;;;;;;2.72;1.83;;;;;;;;;;5063389;28;20036;-53
2021/01/20 06:19:06;;;;;;;0.60;0.60;;;;;;;;;;5062986;28;20513;-55
2021/01/20 06:21:32;;;;;;;1.42;1.13;;;;;;;;;;5062958;28;20028;-51
2021/01/20 06:24:01;;;;;;;0.40;0.40;;;;;;;;;;5064885;28;20031;-51
2021/01/20 06:26:28;;;;;;;2.58;1.25;;;;;;;;;;5065246;28;20028;-51
2021/01/20 06:29:03;;;;;;;1.15;0.73;;;;;;;;;;5062883;28;20112;-52
2021/01/20 06:31:30;;;;;;;1.58;1.05;;;;;;;;;;5062580;28;20112;-52
2021/01/20 06:33:56;;;;;;;4.78;1.30;;;;;;;;;;5062537;28;20434;-54
2021/01/20 06:36:32;;;;;;;2.53;0.80;;;;;;;;;;5062337;28;20414;-53
2021/01/20 06:38:59;;;;;;;1.55;0.90;;;;;;;;;;5064654;28;20035;-55
2021/01/20 06:41:39;;;;;;;1.02;0.50;;;;;;;;;;5063666;28;20056;-56
2021/01/20 06:44:09;;;;;;;2.40;1.42;;;;;;;;;;5062569;28;20021;-54
2021/01/20 06:46:36;;;;;;;1.25;0.70;;;;;;;;;;5062373;28;20060;-55
2021/01/20 06:49:02;;;;;;;12.90;1.45;;;;;;;;;;5062330;28;20017;-53
2021/01/20 06:51:29;;;;;;;0.08;0.08;;;;;;;;;;5062238;28;20029;-52
2021/01/20 06:54:10;;;;;;;0.17;0.17;;;;;;;;;;5064651;28;20028;-51
2021/01/20 06:56:56;;;;;;;1.05;0.68;;;;;;;;;;5064991;28;20029;-53
2021/01/20 06:59:25;;;;;;;1.38;0.50;;;;;;;;;;5064365;28;20043;-55
2021/01/20 07:02:04;;;;;;;0.65;0.38;;;;;;;;;;5055328;28;20037;-54
2021/01/20 07:04:39;;;;;;;1.00;0.60;;;;;;;;;;5051443;28;20033;-52
2021/01/20 07:07:05;;;;;;;0.68;0.57;;;;;;;;;;5052266;28;20104;-54
2021/01/20 07:09:50;;;;;;;0.40;0.30;;;;;;;;;;5052051;28;20044;-54
2021/01/20 07:12:21;;;;;;;0.73;0.45;;;;;;;;;;5034082;28;20409;-50
2021/01/20 07:14:48;;;;;;;2.75;0.88;;;;;;;;;;5051182;28;20081;-52
2021/01/20 07:17:14;;;;;;;1.02;0.47;;;;;;;;;;5051575;28;20032;-54
2021/01/20 07:19:41;;;;;;;0.50;0.20;;;;;;;;;;5044180;28;20103;-53
2021/01/20 07:22:07;;;;;;;0.30;0.15;;;;;;;;;;5039501;28;20036;-52
2021/01/20 07:24:34;;;;;;;1.70;0.43;;;;;;;;;;5048827;28;20443;-55
2021/01/20 07:27:07;;;;;;;0.82;0.77;;;;;;;;;;5035350;28;20033;-54
2021/01/20 07:29:33;;;;;;;1.30;0.22;;;;;;;;;;5036420;28;20388;-53
2021/01/20 07:32:00;;;;;;;2.65;0.98;;;;;;;;;;5047590;28;20029;-51
2021/01/20 07:34:36;;;;;;;1.75;0.82;;;;;;;;;;5042715;28;20549;-53
2021/01/20 07:37:16;;;;;;;0.45;0.28;;;;;;;;;;5043906;28;20024;-50
2021/01/20 07:39:43;;;;;;;2.70;0.85;;;;;;;;;;5049469;28;20044;-52
2021/01/20 07:42:09;;;;;;;1.02;0.30;;;;;;;;;;5048587;28;20026;-53
2021/01/20 07:44:45;;;;;;;4.57;1.25;;;;;;;;;;5048391;28;20029;-50
2021/01/20 07:47:12;;;;;;;1.40;1.08;;;;;;;;;;5048311;28;20037;-52
2021/01/20 07:49:38;;;;;;;1.35;1.25;;;;;;;;;;5049721;28;20033;-52
2021/01/20 07:52:05;;;;;;;1.33;0.85;;;;;;;;;;5048204;28;20086;-50
2021/01/20 07:54:41;;;;;;;0.75;0.60;;;;;;;;;;5049758;28;20032;-50
2021/01/20 07:57:08;;;;;;;1.15;1.02;;;;;;;;;;5048688;28;20036;-50
2021/01/20 07:59:34;;;;;;;1.00;0.70;;;;;;;;;;5049736;28;20009;-52
2021/01/20 08:02:12;;;;;;;1.33;0.82;;;;;;;;;;5047175;28;20036;-50
2021/01/20 08:04:38;;;;;;;1.63;0.93;;;;;;;;;;5048660;28;20021;-52
2021/01/20 08:07:04;;;;;;;0.10;0.10;;;;;;;;;;5049672;28;20044;-51
2021/01/20 08:09:37;;;;;;;0.38;0.38;;;;;;;;;;5049468;28;20108;-51
2021/01/20 08:12:04;;;;;;;1.20;0.85;;;;;;;;;;5047987;28;20465;-51
2021/01/20 08:14:30;;;;;;;1.02;0.98;;;;;;;;;;5048990;28;20452;-52
2021/01/20 08:16:56;;;;;;;0.82;0.40;;;;;;;;;;5049130;28;20051;-50
2021/01/20 08:19:22;;;;;;;1.23;0.75;;;;;;;;;;5046964;28;20100;-50
2021/01/20 08:21:49;;;;;;;2.65;0.80;;;;;;;;;;5049403;28;20056;-53
2021/01/20 08:24:33;;;;;;;0.40;0.40;;;;;;;;;;5048655;28;20024;-54
2021/01/20 08:27:00;;;;;;;0.95;0.63;;;;;;;;;;5048951;28;20025;-52
2021/01/20 08:29:27;;;;;;;2.78;0.88;;;;;;;;;;5049306;28;20048;-52
2021/01/20 08:32:12;;;;;;;1.33;1.17;;;;;;;;;;5047617;28;20017;-51
2021/01/20 08:34:38;;;;;;;4.93;1.00;;;;;;;;;;5048250;28;20029;-51
2021/01/20 08:37:07;;;;;;;1.15;0.77;;;;;;;;;;5048056;28;20112;-52
2021/01/20 08:39:37;;;;;;;1.00;0.75;;;;;;;;;;5074066;28;20387;-52
2021/01/20 08:42:22;;;;;;;0.93;0.40;;;;;;;;;;5047857;28;20036;-51
2021/01/20 08:45:01;;;;;;;1.10;0.75;;;;;;;;;;5050026;28;20103;-54
2021/01/20 08:47:27;;;;;;;3.88;1.85;;;;;;;;;;5045561;28;20041;-51
2021/01/20 08:49:54;;;;;;;0.77;0.77;;;;;;;;;;5046382;28;20410;-51
2021/01/20 08:52:20;;;;;;;9.60;1.90;;;;;;;;;;5046553;28;20033;-52
2021/01/20 08:54:47;;;;;;;1.60;0.75;;;;;;;;;;5046454;28;20041;-54
2021/01/20 08:57:17;;;;;;;0.55;0.40;;;;;;;;;;5046962;28;20045;-51
2021/01/20 08:59:54;;;;;;;5.85;1.10;;;;;;;;;;5045781;28;20048;-53
2021/01/20 09:02:20;;;;;;;9.77;1.20;;;;;;;;;;5046490;28;20033;-52
2021/01/20 09:04:47;;;;;;;4.85;0.90;;;;;;;;;;5047587;28;20643;-52
2021/01/20 09:07:13;;;;;;;2.70;1.05;;;;;;;;;;5048052;28;20056;-51
2021/01/20 09:09:39;;;;;;;3.45;1.40;;;;;;;;;;5047712;28;20619;-50
2021/01/20 09:12:06;;;;;;;5.82;1.33;;;;;;;;;;5045819;28;20029;-52
2021/01/20 09:14:32;;;;;;;2.97;1.15;;;;;;;;;;5047649;28;20025;-51
2021/01/20 09:17:01;;;;;;;1.30;0.70;;;;;;;;;;5047312;28;20079;-53
2021/01/20 09:19:28;;;;;;;0.43;0.43;;;;;;;;;;5046913;28;20083;-51
2021/01/20 09:21:54;;;;;;;3.10;0.60;;;;;;;;;;5046044;28;20032;-50
2021/01/20 09:24:20;;;;;;;0.45;0.45;;;;;;;;;;5046326;28;20036;-51
2021/01/20 09:26:46;;;;;;;0.75;0.52;;;;;;;;;;5049393;28;20033;-54
2021/01/20 09:29:13;;;;;;;0.52;0.40;;;;;;;;;;5034668;28;20034;-55
2021/01/20 09:31:39;;;;;;;0.88;0.75;;;;;;;;;;5042333;28;20028;-51
2021/01/20 09:34:05;;;;;;;0.20;0.20;;;;;;;;;;5045923;28;20025;-51
2021/01/20 09:36:31;;;;;;;1.88;1.08;;;;;;;;;;5047566;28;20036;-52
2021/01/20 09:38:59;;;;;;;1.30;0.85;;;;;;;;;;5038886;28;20032;-55
2021/01/20 09:41:28;;;;;;;0.95;0.73;;;;;;;;;;5047527;28;20070;-54
2021/01/20 09:43:55;;;;;;;1.05;0.50;;;;;;;;;;5045402;28;20489;-52
2021/01/20 09:46:21;;;;;;;2.95;1.00;;;;;;;;;;5045956;28;20037;-53
2021/01/20 09:48:47;;;;;;;4.63;1.98;;;;;;;;;;5046768;28;20074;-52
2021/01/20 09:51:14;;;;;;;0.95;0.68;;;;;;;;;;5047487;28;20042;-50
2021/01/20 09:53:40;;;;;;;2.28;0.70;;;;;;;;;;5047389;28;20028;-51
2021/01/20 09:56:06;;;;;;;2.40;0.93;;;;;;;;;;5045435;28;20417;-52
2021/01/20 09:58:47;;;;;;;5.72;2.25;;;;;;;;;;5044314;28;20585;-51
2021/01/20 10:01:13;;;;;;;2.40;1.73;;;;;;;;;;5045652;28;20041;-51
2021/01/20 10:03:39;;;;;;;5.20;0.65;;;;;;;;;;5045703;28;20494;-50
2021/01/20 10:06:05;;;;;;;2.22;1.77;;;;;;;;;;5045661;28;20033;-51
2021/01/20 10:08:32;;;;;;;3.53;2.22;;;;;;;;;;5044823;28;20056;-53
2021/01/20 10:10:58;;;;;;;1.15;1.05;;;;;;;;;;5045001;28;20033;-54
2021/01/20 10:13:25;;;;;;;1.95;0.50;;;;;;;;;;5045314;28;20029;-51
2021/01/20 10:15:51;;;;;;;0.88;0.70;;;;;;;;;;5045973;28;20501;-53
2021/01/20 10:18:17;;;;;;;9.27;1.95;;;;;;;;;;5045425;28;20049;-51
2021/01/20 10:20:44;;;;;;;0.25;0.22;;;;;;;;;;5046799;28;20480;-50
2021/01/20 10:23:10;;;;;;;2.75;1.23;;;;;;;;;;5045428;28;20117;-50
2021/01/20 10:25:36;;;;;;;1.05;0.57;;;;;;;;;;5046022;28;20036;-51
2021/01/20 10:28:03;;;;;;;1.42;1.00;;;;;;;;;;5043615;28;20468;-52
2021/01/20 10:30:29;;;;;;;3.50;1.05;;;;;;;;;;5046924;28;20136;-51
2021/01/20 10:32:55;;;;;;;0.75;0.68;;;;;;;;;;5043787;28;20028;-53
2021/01/20 10:35:22;;;;;;;1.60;1.27;;;;;;;;;;5046138;28;20118;-51
2021/01/20 10:37:48;;;;;;;1.55;0.95;;;;;;;;;;5048759;28;20444;-52
2021/01/20 10:40:15;;;;;;;0.47;0.38;;;;;;;;;;5048666;28;20505;-51
2021/01/20 10:42:41;;;;;;;4.18;2.22;;;;;;;;;;5049969;28;20023;-51
2021/01/20 10:45:07;;;;;;;1.50;1.08;;;;;;;;;;5047908;28;20094;-53
2021/01/20 10:47:34;;;;;;;0.52;0.52;;;;;;;;;;5049348;28;20021;-51
2021/01/20 10:50:02;;;;;;;1.23;0.80;;;;;;;;;;5049210;28;20029;-52
2021/01/20 10:52:29;;;;;;;4.38;1.58;;;;;;;;;;5048925;28;20017;-51
2021/01/20 10:54:55;;;;;;;5.18;1.88;;;;;;;;;;5048686;28;20028;-63
2021/01/20 10:57:21;;;;;;;2.65;1.35;;;;;;;;;;5053345;28;20055;-52
2021/01/20 10:59:47;;;;;;;2.38;1.27;;;;;;;;;;5047105;28;20087;-54
2021/01/20 11:02:14;;;;;;;2.30;0.80;;;;;;;;;;5052103;28;20033;-53
2021/01/20 11:04:40;;;;;;;1.30;0.85;;;;;;;;;;5048697;28;20029;-50
2021/01/20 11:07:07;;;;;;;5.63;1.80;;;;;;;;;;5048437;28;20032;-53
2021/01/20 11:09:33;;;;;;;3.67;2.35;;;;;;;;;;5035199;28;20037;-54
2021/01/20 11:11:59;;;;;;;1.00;0.82;;;;;;;;;;5050236;28;20033;-51
2021/01/20 11:14:29;;;;;;;0.85;0.85;;;;;;;;;;5050126;28;20079;-52
2021/01/20 11:16:55;;;;;;;0.30;0.28;;;;;;;;;;5043889;28;20033;-53
2021/01/20 11:19:21;;;;;;;4.50;1.30;;;;;;;;;;5047559;28;20070;-52
2021/01/20 11:21:49;;;;;;;3.50;1.48;;;;;;;;;;5048862;28;20079;-53
2021/01/20 11:24:18;;;;;;;3.63;1.40;;;;;;;;;;5057588;28;20514;-52
2021/01/20 11:26:44;;;;;;;2.15;0.80;;;;;;;;;;5060316;28;20052;-55
2021/01/20 11:29:10;;;;;;;3.03;1.38;;;;;;;;;;5054049;28;20033;-53
2021/01/20 11:31:36;;;;;;;3.60;1.73;;;;;;;;;;5056517;28;20869;-50
2021/01/20 11:34:03;;;;;;;1.35;1.00;;;;;;;;;;5053854;28;20509;-55
2021/01/20 11:36:29;;;;;;;3.25;1.50;;;;;;;;;;5059017;28;20029;-54
2021/01/20 11:38:55;;;;;;;3.03;1.17;;;;;;;;;;5050019;28;20474;-51
2021/01/20 11:41:21;;;;;;;2.00;0.90;;;;;;;;;;5050609;28;20040;-51
2021/01/20 11:43:47;;;;;;;3.90;1.35;;;;;;;;;;5041237;28;20500;-51
2021/01/20 11:46:14;;;;;;;6.97;1.52;;;;;;;;;;5039419;28;20109;-51
2021/01/20 11:48:40;;;;;;;2.30;0.68;;;;;;;;;;5035953;28;20025;-51
2021/01/20 11:51:07;;;;;;;5.30;1.38;;;;;;;;;;5034812;28;20045;-51
2021/01/20 11:53:33;;;;;;;5.70;1.52;;;;;;;;;;5037210;28;20415;-51
2021/01/20 11:55:59;;;;;;;0.73;0.63;;;;;;;;;;5042277;28;20017;-50
2021/01/20 11:58:25;;;;;;;6.32;1.50;;;;;;;;;;5045784;28;20025;-53
2021/01/20 12:00:51;;;;;;;1.45;1.00;;;;;;;;;;5048609;28;20041;-52
2021/01/20 12:03:17;;;;;;;0.17;0.17;;;;;;;;;;5038724;28;20017;-51
2021/01/20 12:05:43;;;;;;;3.47;0.55;;;;;;;;;;5050277;28;20033;-51
2021/01/20 12:08:09;;;;;;;0.63;0.45;;;;;;;;;;5037507;28;20021;-50
2021/01/20 12:10:35;;;;;;;3.30;1.40;;;;;;;;;;5037197;28;20467;-51
2021/01/20 12:13:01;;;;;;;3.38;1.20;;;;;;;;;;5037445;28;20116;-50
2021/01/20 12:15:28;;;;;;;1.45;0.77;;;;;;;;;;5033989;28;20053;-52
2021/01/20 12:17:54;;;;;;;9.13;1.80;;;;;;;;;;5034869;28;20021;-53
2021/01/20 12:20:20;;;;;;;1.95;0.73;;;;;;;;;;5036839;28;20025;-53
2021/01/20 12:22:46;;;;;;;1.27;0.85;;;;;;;;;;5036805;28;20068;-51
2021/01/20 12:25:12;;;;;;;2.10;0.40;;;;;;;;;;5040073;28;20029;-52
2021/01/20 12:27:39;;;;;;;2.50;0.35;;;;;;;;;;5048351;28;20044;-51
2021/01/20 12:30:06;;;;;;;0.65;0.55;;;;;;;;;;5033816;28;20034;-52
2021/01/20 12:32:33;;;;;;;1.70;0.40;;;;;;;;;;5035537;28;20033;-54
2021/01/20 12:34:59;;;;;;;2.63;1.45;;;;;;;;;;5036130;28;20029;-52
2021/01/20 12:37:25;;;;;;;0.57;0.57;;;;;;;;;;5036185;28;20030;-51
2021/01/20 12:39:51;;;;;;;1.88;1.05;;;;;;;;;;5040750;28;20009;-52
2021/01/20 12:42:17;;;;;;;3.28;0.90;;;;;;;;;;5047937;28;20045;-50
2021/01/20 12:44:43;;;;;;;1.70;0.77;;;;;;;;;;5050987;28;20069;-54
2021/01/20 12:47:09;;;;;;;2.75;0.60;;;;;;;;;;5049046;28;20086;-54
2021/01/20 12:49:35;;;;;;;1.13;0.70;;;;;;;;;;5048974;28;20486;-54
2021/01/20 12:52:01;;;;;;;0.10;0.10;;;;;;;;;;5047320;28;20033;-51
2021/01/20 12:54:27;;;;;;;2.17;1.48;;;;;;;;;;5048162;28;20458;-53
2021/01/20 12:56:54;;;;;;;8.90;2.10;;;;;;;;;;5047978;28;20568;-53
2021/01/20 12:59:20;;;;;;;0.57;0.57;;;;;;;;;;5048564;28;20025;-55
2021/01/20 13:01:46;;;;;;;0.20;0.20;;;;;;;;;;5047765;28;20116;-54
2021/01/20 13:04:12;;;;;;;2.95;0.73;;;;;;;;;;5048730;28;20067;-54
2021/01/20 13:06:38;;;;;;;1.42;0.82;;;;;;;;;;5047908;28;20040;-51
2021/01/20 13:09:04;;;;;;;4.05;1.65;;;;;;;;;;5049270;28;20540;-53
2021/01/20 13:11:30;;;;;;;6.93;1.65;;;;;;;;;;5050471;28;20036;-54
2021/01/20 13:13:56;;;;;;;1.77;1.02;;;;;;;;;;5041882;28;20035;-55
2021/01/20 13:16:23;;;;;;;10.25;2.58;;;;;;;;;;5046119;28;20401;-53
2021/01/20 13:18:49;;;;;;;3.38;1.63;;;;;;;;;;5048418;28;20078;-54
2021/01/20 13:21:16;;;;;;;1.95;0.30;;;;;;;;;;5045569;28;20033;-52
2021/01/20 13:23:42;;;;;;;1.98;1.45;;;;;;;;;;5046925;28;20021;-56
2021/01/20 13:26:09;;;;;;;0.20;0.20;;;;;;;;;;5048258;28;20398;-51
2021/01/20 13:28:35;;;;;;;3.55;1.20;;;;;;;;;;5045328;28;20052;-55
2021/01/20 13:31:01;;;;;;;1.92;1.75;;;;;;;;;;5045931;28;20120;-54
2021/01/20 13:33:27;;;;;;;1.08;0.65;;;;;;;;;;5046428;28;20025;-54
2021/01/20 13:35:53;;;;;;;9.38;2.20;;;;;;;;;;5047785;28;20036;-53
2021/01/20 13:38:19;;;;;;;5.05;0.63;;;;;;;;;;5048865;28;20081;-54
2021/01/20 13:40:45;;;;;;;9.68;1.00;;;;;;;;;;5046639;28;20025;-51
2021/01/20 13:43:12;;;;;;;3.72;1.52;;;;;;;;;;5046042;28;20116;-51
2021/01/20 13:45:38;;;;;;;1.13;0.50;;;;;;;;;;5046572;28;20031;-53
2021/01/20 13:48:04;;;;;;;11.50;1.05;;;;;;;;;;5048283;28;20092;-53
2021/01/20 13:50:30;;;;;;;0.10;0.10;;;;;;;;;;5046713;28;20406;-57
2021/01/20 13:52:57;;;;;;;5.75;1.50;;;;;;;;;;5045651;28;20112;-51
2021/01/20 13:55:23;;;;;;;0.55;0.43;;;;;;;;;;5046759;28;20102;-52
2021/01/20 13:57:49;;;;;;;1.65;0.63;;;;;;;;;;5045564;28;20148;-53
2021/01/20 14:00:16;;;;;;;0.93;0.40;;;;;;;;;;5046427;28;20053;-52
2021/01/20 14:02:42;;;;;;;2.05;1.02;;;;;;;;;;5044796;28;20033;-51
2021/01/20 14:05:08;;;;;;;6.75;1.83;;;;;;;;;;5046673;28;20025;-54
2021/01/20 14:07:34;;;;;;;0.22;0.22;;;;;;;;;;5045781;28;20048;-56
2021/01/20 14:10:00;;;;;;;4.43;3.33;;;;;;;;;;5045521;28;20493;-51
2021/01/20 14:12:26;;;;;;;4.95;0.30;;;;;;;;;;5049902;28;20196;-54
2021/01/20 14:14:53;;;;;;;0.90;0.75;;;;;;;;;;5051264;28;20494;-52
2021/01/20 14:17:19;;;;;;;4.30;0.65;;;;;;;;;;5052298;28;20385;-50
2021/01/20 14:19:46;;;;;;;3.92;0.50;;;;;;;;;;5050280;28;20013;-51
2021/01/20 14:22:12;;;;;;;1.60;0.63;;;;;;;;;;5050035;28;20494;-51
2021/01/20 14:24:38;;;;;;;3.97;0.88;;;;;;;;;;5050228;28;20101;-51
2021/01/20 14:27:04;;;;;;;0.15;0.15;;;;;;;;;;5050398;28;20406;-50
2021/01/20 14:29:30;;;;;;;5.05;1.25;;;;;;;;;;5048751;28;20052;-51
2021/01/20 14:31:56;;;;;;;8.15;1.02;;;;;;;;;;5048986;28;20040;-54
2021/01/20 14:34:23;;;;;;;8.27;1.73;;;;;;;;;;5050619;28;20024;-53
2021/01/20 14:36:53;;;;;;;10.38;0.75;;;;;;;;;;5049749;28;20405;-50
2021/01/20 14:39:22;;;;;;;0.63;0.35;;;;;;;;;;5064722;28;20458;-54
2021/01/20 14:41:49;;;;;;;5.18;0.85;;;;;;;;;;5048439;28;20033;-52
2021/01/20 14:44:15;;;;;;;2.70;1.15;;;;;;;;;;5050289;28;20486;-51
2021/01/20 14:46:43;;;;;;;2.05;0.75;;;;;;;;;;5050856;28;20039;-51
2021/01/20 14:49:09;;;;;;;8.07;1.55;;;;;;;;;;5050392;28;20364;-53
2021/01/20 14:51:35;;;;;;;0.13;0.13;;;;;;;;;;5049776;28;20033;-51
2021/01/20 14:54:01;;;;;;;3.03;0.85;;;;;;;;;;5051963;28;20079;-50
2021/01/20 14:56:27;;;;;;;1.15;0.40;;;;;;;;;;5050226;28;20486;-50
2021/01/20 14:58:53;;;;;;;7.70;1.50;;;;;;;;;;5048970;28;20044;-51
2021/01/20 15:01:20;;;;;;;3.08;0.47;;;;;;;;;;5050012;28;20041;-53
2021/01/20 15:03:46;;;;;;;3.95;1.40;;;;;;;;;;5048902;28;20021;-51
2021/01/20 15:06:12;;;;;;;2.13;1.10;;;;;;;;;;5050361;28;20109;-51
2021/01/20 15:08:38;;;;;;;2.83;1.30;;;;;;;;;;5051436;28;20033;-53
2021/01/20 15:11:04;;;;;;;1.58;0.38;;;;;;;;;;5049429;28;20081;-51
2021/01/20 15:13:30;;;;;;;0.98;0.73;;;;;;;;;;5048755;28;20156;-51
2021/01/20 15:15:56;;;;;;;6.38;1.80;;;;;;;;;;5048899;28;20096;-50
2021/01/20 15:18:22;;;;;;;3.03;0.82;;;;;;;;;;5048145;28;20047;-50
2021/01/20 15:20:57;;;;;;;2.90;0.95;;;;;;;;;;5051935;28;20028;-50
2021/01/20 15:23:27;;;;;;;4.07;1.40;;;;;;;;;;5050024;28;20478;-51
2021/01/20 15:25:57;;;;;;;0.50;0.50;;;;;;;;;;5047307;28;20029;-52
2021/01/20 15:28:24;;;;;;;2.30;0.47;;;;;;;;;;5048454;28;20021;-50
2021/01/20 15:30:51;;;;;;;5.22;1.45;;;;;;;;;;5048428;28;20112;-50
2021/01/20 15:33:18;;;;;;;2.78;0.95;;;;;;;;;;5044978;28;20017;-54
2021/01/20 15:35:46;;;;;;;3.17;1.45;;;;;;;;;;5051476;28;20071;-50
2021/01/20 15:38:12;;;;;;;0.30;0.20;;;;;;;;;;5048267;28;20036;-50
2021/01/20 15:40:38;;;;;;;4.38;0.98;;;;;;;;;;5047755;28;20025;-50
2021/01/20 15:43:04;;;;;;;0.40;0.28;;;;;;;;;;5049853;28;20371;-51
2021/01/20 15:45:30;;;;;;;8.23;1.08;;;;;;;;;;5048165;28;20025;-51
2021/01/20 15:47:56;;;;;;;4.57;1.48;;;;;;;;;;5049729;28;20029;-51
2021/01/20 15:50:23;;;;;;;2.13;0.90;;;;;;;;;;5049100;28;20033;-52
2021/01/20 15:52:49;;;;;;;7.88;1.02;;;;;;;;;;5049837;28;20036;-54
2021/01/20 15:55:18;;;;;;;3.28;0.98;;;;;;;;;;5048188;28;20072;-52
2021/01/20 15:57:46;;;;;;;4.35;1.45;;;;;;;;;;5046221;28;20021;-54
2021/01/20 16:00:12;;;;;;;3.05;0.50;;;;;;;;;;5047336;28;20515;-51
2021/01/20 16:02:39;;;;;;;3.67;1.15;;;;;;;;;;5051020;28;20152;-55
2021/01/20 16:05:06;;;;;;;7.05;1.10;;;;;;;;;;5044996;28;20496;-55
2021/01/20 16:07:32;;;;;;;0.73;0.60;;;;;;;;;;5045487;28;20403;-56
2021/01/20 16:09:58;;;;;;;7.88;1.70;;;;;;;;;;5043892;28;20032;-53
2021/01/20 16:12:24;;;;;;;1.25;0.60;;;;;;;;;;5046819;28;20026;-51
2021/01/20 16:14:50;;;;;;;5.15;1.42;;;;;;;;;;5079326;28;20440;-51
2021/01/20 16:17:16;;;;;;;1.30;0.50;;;;;;;;;;5047062;28;20131;-50
2021/01/20 16:19:42;;;;;;;3.03;0.75;;;;;;;;;;5047533;28;20770;-51
2021/01/20 16:22:09;;;;;;;4.47;1.05;;;;;;;;;;5047602;28;20039;-55
2021/01/20 16:24:35;;;;;;;5.45;1.00;;;;;;;;;;5047173;28;20036;-55
2021/01/20 16:27:01;;;;;;;0.30;0.30;;;;;;;;;;5048405;28;20045;-51
2021/01/20 16:29:27;;;;;;;2.60;1.20;;;;;;;;;;5046904;28;20025;-54
2021/01/20 16:31:53;;;;;;;6.90;1.48;;;;;;;;;;5047327;28;20025;-55
2021/01/20 16:34:19;;;;;;;2.53;0.77;;;;;;;;;;5046184;28;20082;-50
2021/01/20 16:36:45;;;;;;;8.90;2.22;;;;;;;;;;5048836;28;20055;-52
2021/01/20 16:39:12;;;;;;;13.05;1.63;;;;;;;;;;5047767;28;20624;-51
2021/01/20 16:41:39;;;;;;;1.85;0.60;;;;;;;;;;5048856;28;20032;-52
2021/01/20 16:44:06;;;;;;;9.85;1.05;;;;;;;;;;5047151;28;20032;-52
2021/01/20 16:46:32;;;;;;;8.02;0.75;;;;;;;;;;5046869;28;20028;-52
2021/01/20 16:48:58;;;;;;;2.65;1.00;;;;;;;;;;5047025;28;20050;-50
2021/01/20 16:51:26;;;;;;;2.25;0.52;;;;;;;;;;5047923;28;20453;-51
2021/01/20 16:53:52;;;;;;;4.90;0.93;;;;;;;;;;5046841;28;20095;-51
2021/01/20 16:56:18;;;;;;;4.20;0.82;;;;;;;;;;5049067;28;20072;-54
2021/01/20 16:58:45;;;;;;;5.63;0.90;;;;;;;;;;5046793;28;20021;-53
2021/01/20 17:01:11;;;;;;;3.90;1.30;;;;;;;;;;5046084;28;20423;-52
2021/01/20 17:03:37;;;;;;;5.40;1.77;;;;;;;;;;5044309;28;20482;-52
2021/01/20 17:06:03;;;;;;;6.13;0.55;;;;;;;;;;5077022;28;20013;-53
2021/01/20 17:08:29;;;;;;;0.50;0.10;;;;;;;;;;5047776;28;20096;-51
2021/01/20 17:10:55;;;;;;;1.40;0.52;;;;;;;;;;5045003;28;20029;-53
2021/01/20 17:13:21;;;;;;;5.30;0.70;;;;;;;;;;5045868;28;20028;-51
2021/01/20 17:15:47;;;;;;;1.50;0.47;;;;;;;;;;5046375;28;20394;-52
2021/01/20 17:18:15;;;;;;;7.43;1.00;;;;;;;;;;5047176;28;20027;-51
2021/01/20 17:20:41;;;;;;;13.65;1.15;;;;;;;;;;5051395;28;20108;-51
2021/01/20 17:23:07;;;;;;;1.63;0.82;;;;;;;;;;5050207;28;20021;-53
2021/01/20 17:25:33;;;;;;;2.13;1.25;;;;;;;;;;5050984;28;20497;-54
2021/01/20 17:27:59;;;;;;;6.93;3.40;;;;;;;;;;5046626;28;20025;-51
2021/01/20 17:30:25;;;;;;;0.22;0.22;;;;;;;;;;5046832;28;20120;-52
2021/01/20 17:32:52;;;;;;;1.35;0.70;;;;;;;;;;5048620;28;20029;-51
2021/01/20 17:35:18;;;;;;;2.80;0.73;;;;;;;;;;5047869;28;20375;-53
2021/01/20 17:37:44;;;;;;;6.93;0.22;;;;;;;;;;5047938;28;20040;-51
2021/01/20 17:40:10;;;;;;;0.10;0.10;;;;;;;;;;5048040;28;20099;-52
2021/01/20 17:42:36;;;;;;;0.20;0.20;;;;;;;;;;5047861;28;20025;-50
2021/01/20 17:45:05;;;;;;;0.10;0.10;;;;;;;;;;5032413;28;20033;-52
2021/01/20 17:47:31;;;;;;;0.95;0.40;;;;;;;;;;5045887;28;20033;-51
2021/01/20 17:49:57;;;;;;;3.70;1.35;;;;;;;;;;5046706;28;20045;-52
2021/01/20 17:52:23;;;;;;;0.55;0.50;;;;;;;;;;5049581;28;20555;-55
2021/01/20 17:54:49;;;;;;;1.85;1.13;;;;;;;;;;5050176;28;20108;-52
2021/01/20 17:57:15;;;;;;;2.90;0.98;;;;;;;;;;5050205;28;20067;-51
2021/01/20 17:59:41;;;;;;;0.10;0.10;;;;;;;;;;5050661;28;20045;-59
2021/01/20 18:02:07;;;;;;;0.20;0.20;;;;;;;;;;5049835;28;20119;-59
2021/01/20 18:04:34;;;;;;;0.75;0.30;;;;;;;;;;5049919;28;20063;-53
2021/01/20 18:07:00;;;;;;;0.22;0.20;;;;;;;;;;5050154;28;20021;-51
2021/01/20 18:09:26;;;;;;;1.55;0.40;;;;;;;;;;5049711;28;20044;-51
2021/01/20 18:11:52;;;;;;;1.45;0.32;;;;;;;;;;5049347;28;20074;-54
2021/01/20 18:14:18;;;;;;;0.30;0.30;;;;;;;;;;5049562;28;20120;-53
2021/01/20 18:16:44;;;;;;;0.10;0.10;;;;;;;;;;5049285;28;20025;-53
2021/01/20 18:19:10;;;;;;;0.20;0.20;;;;;;;;;;5049872;28;20033;-52
2021/01/20 18:21:36;;;;;;;0.10;0.10;;;;;;;;;;5050116;28;20386;-51
2021/01/20 18:24:03;;;;;;;0.93;0.30;;;;;;;;;;5050086;28;20075;-55
2021/01/20 18:26:29;;;;;;;0.45;0.15;;;;;;;;;;5048304;28;20433;-53
2021/01/20 18:28:55;;;;;;;0.10;0.10;;;;;;;;;;5049243;28;20037;-52
2021/01/20 18:31:21;;;;;;;0.00;0.00;;;;;;;;;;5049406;28;20467;-53
2021/01/20 18:33:47;;;;;;;0.20;0.20;;;;;;;;;;5049862;28;20032;-51
2021/01/20 18:36:13;;;;;;;0.57;0.28;;;;;;;;;;5049512;28;20494;-54
2021/01/20 18:38:39;;;;;;;0.03;0.03;;;;;;;;;;5050268;28;20082;-56
2021/01/20 18:41:06;;;;;;;0.43;0.15;;;;;;;;;;5048887;28;20078;-55
2021/01/20 18:43:32;;;;;;;0.15;0.13;;;;;;;;;;5049375;28;20367;-53
2021/01/20 18:45:58;;;;;;;0.10;0.10;;;;;;;;;;5048522;28;20075;-52
2021/01/20 18:48:24;;;;;;;0.10;0.10;;;;;;;;;;5049919;28;20041;-54
2021/01/20 18:50:51;;;;;;;0.00;0.00;;;;;;;;;;5049779;28;20041;-54
2021/01/20 18:53:17;;;;;;;1.30;1.08;;;;;;;;;;5049788;28;20272;-55
2021/01/20 18:55:43;;;;;;;0.17;0.17;;;;;;;;;;5048063;28;20066;-55
2021/01/20 18:58:09;;;;;;;0.00;0.00;;;;;;;;;;5049645;28;20432;-51
2021/01/20 19:00:35;;;;;;;0.35;0.28;;;;;;;;;;5059740;28;20040;-55
2021/01/20 19:03:01;;;;;;;0.20;0.10;;;;;;;;;;5057083;28;20037;-54
2021/01/20 19:05:27;;;;;;;0.22;0.22;;;;;;;;;;5052226;28;20448;-54
2021/01/20 19:07:53;;;;;;;1.17;0.15;;;;;;;;;;5052047;28;20444;-54
2021/01/20 19:10:20;;;;;;;0.63;0.55;;;;;;;;;;5054596;28;20414;-52
2021/01/20 19:12:46;;;;;;;3.65;0.85;;;;;;;;;;5059354;28;20044;-51
2021/01/20 19:15:12;;;;;;;1.45;0.30;;;;;;;;;;5052253;28;20788;-54
2021/01/20 19:17:38;;;;;;;0.15;0.15;;;;;;;;;;5049797;28;20035;-51
2021/01/20 19:20:05;;;;;;;2.42;2.03;;;;;;;;;;5048917;28;20033;-54
2021/01/20 19:22:31;;;;;;;1.50;0.85;;;;;;;;;;5049897;28;20029;-52
2021/01/20 19:24:57;;;;;;;2.00;0.70;;;;;;;;;;5049334;28;20446;-51
2021/01/20 19:27:23;;;;;;;2.88;0.73;;;;;;;;;;5047775;28;20037;-55
2021/01/20 19:29:50;;;;;;;2.30;1.08;;;;;;;;;;5048424;28;20108;-53
2021/01/20 19:32:16;;;;;;;3.20;0.65;;;;;;;;;;5049480;28;20037;-52
2021/01/20 19:34:42;;;;;;;0.20;0.20;;;;;;;;;;5048829;28;20100;-55
2021/01/20 19:37:08;;;;;;;3.80;0.50;;;;;;;;;;5049870;28;20166;-53
2021/01/20 19:39:34;;;;;;;4.28;0.77;;;;;;;;;;5049607;28;20025;-52
2021/01/20 19:42:01;;;;;;;0.50;0.50;;;;;;;;;;5049718;28;20060;-52
2021/01/20 19:44:27;;;;;;;3.78;1.10;;;;;;;;;;5050014;28;20026;-57
2021/01/20 19:46:53;;;;;;;5.93;1.65;;;;;;;;;;5045826;28;20025;-52
2021/01/20 19:49:19;;;;;;;16.77;1.95;;;;;;;;;;5047796;28;20029;-50
2021/01/20 19:51:45;;;;;;;5.47;1.20;;;;;;;;;;5050074;28;20025;-51
2021/01/20 19:54:11;;;;;;;3.83;0.82;;;;;;;;;;5048218;28;20505;-55
2021/01/20 19:56:37;;;;;;;1.73;0.90;;;;;;;;;;5051560;28;20033;-53
2021/01/20 19:59:03;;;;;;;0.98;0.52;;;;;;;;;;5050992;28;20036;-52
2021/01/20 20:01:31;;;;;;;1.85;0.40;;;;;;;;;;5050436;28;20124;-55
2021/01/20 20:03:57;;;;;;;0.25;0.17;;;;;;;;;;5051397;28;20112;-52
2021/01/20 20:06:23;;;;;;;2.33;1.48;;;;;;;;;;5051567;28;20036;-52
2021/01/20 20:08:49;;;;;;;4.13;0.85;;;;;;;;;;5050319;28;20031;-52
2021/01/20 20:11:15;;;;;;;1.33;0.70;;;;;;;;;;5047915;28;20033;-52
2021/01/20 20:13:41;;;;;;;1.27;0.75;;;;;;;;;;5049664;28;20100;-55
2021/01/20 20:16:07;;;;;;;2.42;0.50;;;;;;;;;;5049500;28;20055;-54
2021/01/20 20:18:34;;;;;;;2.25;0.57;;;;;;;;;;5049412;28;20017;-51
2021/01/20 20:21:00;;;;;;;0.13;0.10;;;;;;;;;;5049469;28;20033;-51
2021/01/20 20:23:29;;;;;;;4.85;0.90;;;;;;;;;;5049172;28;20033;-54
2021/01/20 20:25:55;;;;;;;1.33;0.50;;;;;;;;;;5049500;28;20068;-52
2021/01/20 20:28:21;;;;;;;2.42;0.43;;;;;;;;;;5049327;28;20033;-51
2021/01/20 20:30:47;;;;;;;3.80;1.27;;;;;;;;;;5049005;28;20411;-52
2021/01/20 20:33:14;;;;;;;0.75;0.35;;;;;;;;;;5049342;28;20032;-50
2021/01/20 20:35:40;;;;;;;0.68;0.63;;;;;;;;;;5049052;28;20041;-51
2021/01/20 20:38:07;;;;;;;8.20;0.45;;;;;;;;;;5049274;28;20040;-51
2021/01/20 20:40:33;;;;;;;1.30;0.55;;;;;;;;;;5049211;28;20021;-54
2021/01/20 20:42:59;;;;;;;6.72;0.82;;;;;;;;;;5049043;28;20061;-50